createdAt,value
2017-11-05T00:00:25.600Z,12.8
2017-11-05T00:11:11.336Z,12.6
2017-11-05T00:21:25.805Z,12.6
2017-11-05T00:31:39.952Z,12.5
2017-11-05T00:41:54.360Z,12.4
2017-11-05T00:52:08.292Z,12.3
2017-11-05T01:02:23.064Z,12.2
2017-11-05T01:13:07.885Z,12.0
2017-11-05T01:23:53.024Z,12.0
2017-11-05T01:34:38.785Z,11.9
2017-11-05T01:44:52.901Z,11.9
2017-11-05T01:55:07.071Z,11.8
2017-11-05T02:05:52.755Z,11.7
2017-11-05T02:16:07.214Z,11.7
2017-11-05T02:26:21.445Z,11.7
2017-11-05T02:36:35.528Z,11.6
2017-11-05T02:46:49.993Z,11.5
2017-11-05T02:57:04.101Z,11.4
2017-11-05T03:07:18.696Z,11.4
2017-11-05T03:17:32.956Z,11.3
2017-11-05T03:27:47.548Z,11.3
2017-11-05T03:38:00.853Z,11.2
2017-11-05T03:48:14.333Z,11.2
2017-11-05T03:58:28.626Z,11.1
2017-11-05T04:09:13.886Z,11.0
2017-11-05T04:19:58.655Z,11.0
2017-11-05T04:30:12.521Z,11.0
2017-11-05T04:41:00.691Z,10.9
2017-11-05T04:51:12.022Z,10.9
2017-11-05T05:01:26.407Z,10.9
2017-11-05T05:12:11.775Z,10.7
2017-11-05T05:22:58.720Z,10.7
2017-11-05T05:33:13.150Z,10.7
2017-11-05T05:43:27.084Z,10.7
2017-11-05T05:53:40.470Z,10.6
2017-11-05T06:04:29.901Z,10.5
2017-11-05T06:14:43.631Z,10.5
2017-11-05T06:24:57.803Z,10.4
2017-11-05T06:35:12.273Z,10.3
2017-11-05T06:45:57.564Z,10.2
2017-11-05T06:56:11.361Z,10.2
2017-11-05T07:07:00.656Z,10.1
2017-11-05T07:17:14.312Z,10.1
2017-11-05T07:27:28.379Z,10.0
2017-11-05T07:38:16.920Z,9.9
2017-11-05T07:48:30.507Z,9.9
2017-11-05T07:58:43.794Z,9.8
2017-11-05T08:09:32.672Z,9.6
2017-11-05T08:19:46.783Z,9.6
2017-11-05T08:29:58.091Z,9.5
2017-11-05T08:40:44.034Z,9.5
2017-11-05T08:51:33.467Z,9.5
2017-11-05T09:01:45.068Z,9.5
2017-11-05T09:11:59.487Z,9.6
2017-11-05T09:22:13.884Z,9.6
2017-11-05T09:33:03.411Z,9.6
2017-11-05T09:43:49.024Z,9.7
2017-11-05T09:54:34.138Z,9.7
2017-11-05T10:05:19.970Z,9.8
2017-11-05T10:16:08.534Z,9.9
2017-11-05T10:26:57.241Z,10.0
2017-11-05T10:38:18.840Z,10.0
2017-11-05T10:48:36.216Z,10.0
2017-11-05T10:58:50.813Z,10.2
2017-11-05T11:09:04.737Z,10.4
2017-11-05T11:19:18.866Z,10.6
2017-11-05T11:30:13.575Z,11.1
2017-11-05T11:40:27.213Z,11.1
2017-11-05T11:51:13.867Z,11.7
2017-11-05T12:01:28.896Z,11.7
2017-11-05T12:11:42.466Z,12.0
2017-11-05T12:22:28.142Z,12.5
2017-11-05T12:33:44.649Z,12.6
2017-11-05T12:44:57.085Z,12.6
2017-11-05T12:55:22.365Z,12.6
2017-11-05T13:05:37.181Z,12.7
2017-11-05T13:15:51.619Z,12.7
2017-11-05T13:26:06.375Z,12.7
2017-11-05T13:36:21.807Z,12.9
2017-11-05T13:47:06.822Z,13.5
2017-11-05T13:57:21.800Z,13.5
2017-11-05T14:07:35.466Z,13.6
2017-11-05T14:17:49.511Z,13.4
2017-11-05T14:28:37.169Z,13.0
2017-11-05T14:38:51.437Z,12.9
2017-11-05T14:49:08.869Z,12.8
2017-11-05T14:59:52.396Z,12.5
2017-11-05T15:10:43.156Z,11.8
2017-11-05T15:32:14.613Z,11.4
2017-11-05T15:43:04.234Z,11.0
2017-11-05T15:53:19.491Z,10.7
2017-11-05T16:03:33.502Z,10.3
2017-11-05T16:13:47.439Z,9.9
2017-11-05T16:24:33.206Z,9.4
2017-11-05T16:35:19.210Z,9.1
2017-11-05T16:45:33.459Z,9.0
2017-11-05T16:55:48.056Z,8.7
2017-11-05T17:06:35.057Z,8.1
2017-11-05T17:17:32.761Z,7.9
2017-11-05T17:27:46.403Z,7.9
2017-11-05T17:37:59.686Z,7.7
2017-11-05T17:48:14.136Z,7.4
2017-11-05T17:58:28.250Z,7.2
2017-11-05T18:09:12.920Z,6.8
2017-11-05T18:19:26.263Z,6.8
2017-11-05T18:30:11.111Z,6.4
2017-11-05T18:40:56.691Z,6.2
2017-11-05T19:05:09.576Z,5.8
2017-11-05T19:16:09.941Z,5.7
2017-11-05T19:27:01.131Z,5.6
2017-11-05T19:38:03.561Z,5.4
2017-11-05T19:48:57.354Z,5.3
2017-11-05T19:59:53.629Z,5.1
2017-11-05T20:10:05.785Z,5.1
2017-11-05T20:21:55.243Z,4.9
2017-11-05T20:32:12.762Z,4.8
2017-11-05T20:42:42.826Z,4.8
2017-11-05T20:53:42.006Z,4.5
2017-11-05T21:03:55.409Z,4.5
2017-11-05T21:14:08.702Z,4.4
2017-11-05T21:24:54.211Z,4.2
2017-11-05T21:35:43.150Z,4.1
2017-11-05T21:45:56.642Z,4.1
2017-11-05T22:00:10.110Z,4.0
2017-11-05T22:11:02.404Z,4.0
2017-11-05T22:21:16.482Z,4.0
2017-11-05T22:31:30.619Z,3.9
2017-11-05T22:56:59.672Z,3.5
2017-11-05T23:07:13.214Z,3.5
2017-11-05T23:17:25.355Z,3.5
2017-11-05T23:27:36.648Z,3.4
2017-11-05T23:39:54.560Z,3.3
2017-11-05T23:52:23.049Z,3.2
